Time;durP1;ratioP1;P1;durP2;ratioP2;P2;SDS_P1;SDS_P2;PMS_P1;PMS_P2;Temp;Humidity;BMP_temperature;BMP_pressure;BME280_temperature;BME280_humidity;BME280_pressure;Samples;Min_cycle;Max_cycle;Signal;HPM_P1;HPM_P2
2022/05/20 00:00:18;;;;;;;8.90;7.50;;;16.50;99.90;;;15.61;100.00;98488.59;5055471;28;20475;-70
2022/05/20 00:02:47;;;;;;;7.60;6.90;;;16.50;99.90;;;15.72;100.00;98484.22;5054474;28;20534;-69
2022/05/20 00:05:14;;;;;;;7.70;7.00;;;16.60;99.90;;;15.70;100.00;98487.19;5071135;28;20444;-69
2022/05/20 00:07:41;;;;;;;9.77;7.20;;;16.60;99.90;;;15.63;100.00;98485.63;5055747;28;20503;-69
2022/05/20 00:10:12;;;;;;;8.50;7.70;;;16.60;99.90;;;15.73;100.00;98492.16;5071126;28;20516;-70
2022/05/20 00:12:40;;;;;;;8.40;7.70;;;16.60;99.90;;;15.72;100.00;98490.50;5055350;28;20923;-69
2022/05/20 00:15:09;;;;;;;9.70;7.73;;;16.60;99.90;;;15.73;100.00;98491.34;5054291;28;20453;-68
2022/05/20 00:17:36;;;;;;;8.60;7.70;;;16.60;99.90;;;15.70;100.00;98502.72;5055673;28;20475;-69
2022/05/20 00:20:06;;;;;;;10.87;8.10;;;16.60;99.90;;;15.70;100.00;98497.25;5055327;28;20488;-70
2022/05/20 00:22:33;;;;;;;8.63;7.77;;;16.60;99.90;;;15.69;100.00;98495.56;5055419;28;20440;-70
2022/05/20 00:27:46;;;;;;;8.20;7.40;;;16.60;99.90;;;15.75;100.00;98497.38;5055823;28;20487;-70
2022/05/20 00:30:14;;;;;;;9.37;8.57;;;16.60;99.90;;;15.77;100.00;98497.94;5055392;28;20540;-70
2022/05/20 00:32:41;;;;;;;9.33;8.43;;;16.60;99.90;;;15.73;100.00;98502.22;5071381;28;20481;-70
2022/05/20 00:35:09;;;;;;;9.30;8.30;;;16.60;99.90;;;15.79;100.00;98495.00;5053755;28;20500;-70
2022/05/20 00:37:37;;;;;;;9.40;8.13;;;16.60;99.90;;;15.74;100.00;98498.44;5055638;28;20440;-70
2022/05/20 00:40:06;;;;;;;11.80;8.60;;;16.60;99.90;;;15.64;100.00;98493.59;5053723;28;20547;-69
2022/05/20 00:42:34;;;;;;;8.40;7.60;;;16.50;99.90;;;15.68;100.00;98499.38;5053498;28;20968;-69
2022/05/20 00:45:03;;;;;;;13.13;8.37;;;16.50;99.90;;;15.74;100.00;98495.72;5055206;28;20827;-69
2022/05/20 00:47:30;;;;;;;8.43;7.67;;;16.60;99.90;;;15.65;100.00;98495.25;5054891;28;20624;-69
2022/05/20 00:50:00;;;;;;;9.83;8.43;;;16.50;99.90;;;15.66;100.00;98496.06;5054858;28;20537;-68
2022/05/20 00:52:30;;;;;;;10.10;8.13;;;16.50;99.90;;;15.54;100.00;98496.91;5054938;28;20922;-69
2022/05/20 00:55:02;;;;;;;9.60;8.60;;;16.50;99.90;;;15.49;100.00;98507.66;5055220;28;20523;-68
2022/05/20 00:57:33;;;;;;;9.23;8.37;;;16.40;99.90;;;15.49;100.00;98507.66;5054282;28;20917;-69
2022/05/20 01:00:08;;;;;;;9.87;8.97;;;16.40;99.90;;;15.41;100.00;98511.56;5055101;28;20466;-70
2022/05/20 01:02:35;;;;;;;9.87;8.90;;;16.30;99.90;;;15.37;100.00;98509.53;5054873;28;20441;-69
2022/05/20 01:05:05;;;;;;;10.20;9.23;;;16.30;99.90;;;15.39;100.00;98505.53;5053728;28;20469;-68
2022/05/20 01:07:39;;;;;;;8.40;7.80;;;16.30;99.90;;;15.46;100.00;98505.41;5055143;28;20476;-69
2022/05/20 01:10:08;;;;;;;10.33;9.30;;;16.30;99.90;;;15.34;100.00;98488.22;5054427;28;20917;-69
2022/05/20 01:12:35;;;;;;;9.50;8.70;;;16.30;99.90;;;15.43;100.00;98509.41;5054489;28;20433;-69
2022/05/20 01:15:06;;;;;;;10.83;8.93;;;16.30;99.90;;;15.33;100.00;98508.34;5054865;28;20477;-69
2022/05/20 01:17:33;;;;;;;8.87;8.07;;;16.20;99.90;;;15.38;100.00;98516.63;5054186;28;20654;-69
2022/05/20 01:20:02;;;;;;;9.20;8.40;;;16.20;99.90;;;15.27;100.00;98510.13;5054287;28;20490;-69
2022/05/20 01:22:37;;;;;;;9.70;8.30;;;16.20;99.90;;;15.37;100.00;98506.81;5053963;28;20446;-69
2022/05/20 01:25:07;;;;;;;9.90;7.80;;;16.20;99.90;;;15.37;100.00;98509.53;5053919;28;20476;-68
2022/05/20 01:27:36;;;;;;;8.13;7.47;;;16.20;99.90;;;15.34;100.00;98510.00;5054137;28;20484;-68
2022/05/20 01:30:03;;;;;;;8.37;7.53;;;16.20;99.90;;;15.40;100.00;98503.66;5054603;28;20511;-69
2022/05/20 01:32:30;;;;;;;7.90;7.30;;;16.20;99.90;;;15.36;100.00;98500.56;5054044;28;20531;-69
2022/05/20 01:34:57;;;;;;;7.77;7.13;;;16.20;99.90;;;15.33;100.00;98508.34;5052976;28;21004;-69
2022/05/20 01:37:25;;;;;;;9.20;8.40;;;16.20;99.90;;;15.30;100.00;98501.47;5053352;28;20999;-69
2022/05/20 01:39:53;;;;;;;8.67;7.77;;;16.20;99.90;;;15.32;100.00;98496.66;5052280;28;20994;-69
2022/05/20 01:42:26;;;;;;;15.13;8.17;;;16.20;99.90;;;15.25;100.00;98494.03;5052760;28;20492;-69
2022/05/20 01:45:01;;;;;;;9.13;7.67;;;16.20;99.90;;;15.24;100.00;98496.97;5054205;28;20449;-69
2022/05/20 01:47:35;;;;;;;9.17;8.30;;;16.10;99.90;;;15.22;100.00;98491.75;5053609;28;20437;-70
2022/05/20 01:50:07;;;;;;;8.00;7.40;;;16.10;99.90;;;15.23;100.00;98507.03;5053861;28;20446;-70
2022/05/20 01:52:41;;;;;;;9.13;8.33;;;16.10;99.90;;;15.23;100.00;98509.75;5054398;28;20438;-70
2022/05/20 01:55:19;;;;;;;8.60;7.90;;;16.10;99.90;;;15.21;100.00;98501.00;5052567;28;20436;-70
2022/05/20 01:57:57;;;;;;;8.83;7.20;;;16.10;99.90;;;15.18;100.00;98501.47;5052849;28;20767;-68
2022/05/20 02:00:29;;;;;;;8.53;7.77;;;16.10;99.90;;;15.13;100.00;98487.75;5053634;28;20560;-68
2022/05/20 02:03:04;;;;;;;8.80;8.00;;;16.00;99.90;;;15.09;100.00;98497.41;5069963;28;20487;-68
2022/05/20 02:05:40;;;;;;;8.33;7.40;;;16.00;99.90;;;15.14;100.00;98492.13;5068830;28;21023;-68
2022/05/20 02:08:12;;;;;;;8.17;7.47;;;16.00;99.90;;;15.17;100.00;98478.03;5053660;28;20433;-70
2022/05/20 02:10:47;;;;;;;8.47;7.67;;;16.00;99.90;;;14.66;100.00;98429.41;5067262;28;20440;-69
2022/05/20 02:13:17;;;;;;;8.57;7.60;;;16.00;99.90;;;15.08;100.00;98484.88;5049146;28;20450;-69
2022/05/20 02:15:51;;;;;;;8.63;7.97;;;16.00;99.90;;;15.05;100.00;98485.34;5034208;28;20916;-69
2022/05/20 02:18:22;;;;;;;8.90;8.10;;;16.00;99.90;;;15.04;100.00;98487.25;5032940;28;20786;-69
2022/05/20 02:20:54;;;;;;;9.33;8.63;;;15.90;99.90;;;15.09;100.00;98486.53;5033302;28;20473;-68
2022/05/20 02:23:25;;;;;;;8.40;7.70;;;15.90;99.90;;;15.04;100.00;98486.41;5033707;28;20470;-69
2022/05/20 02:26:01;;;;;;;7.90;7.30;;;16.00;99.90;;;15.09;100.00;98495.53;5033613;28;21008;-68
2022/05/20 02:28:32;;;;;;;9.03;8.23;;;16.00;99.90;;;15.07;100.00;98485.94;5033842;28;20547;-68
2022/05/20 02:31:02;;;;;;;13.03;8.80;;;16.00;99.90;;;15.01;100.00;98490.41;5033550;28;20446;-69
2022/05/20 02:33:29;;;;;;;9.33;8.43;;;15.90;99.90;;;15.02;100.00;98487.47;5032370;28;20793;-68
2022/05/20 02:36:03;;;;;;;9.90;8.93;;;15.90;99.90;;;14.91;100.00;98493.69;5031953;28;20877;-69
2022/05/20 02:38:30;;;;;;;9.43;8.63;;;15.80;99.90;;;14.90;100.00;98493.94;5033200;28;20743;-69
2022/05/20 02:40:59;;;;;;;8.47;7.70;;;15.80;99.90;;;14.87;100.00;98498.78;5032007;28;20472;-69
2022/05/20 02:43:27;;;;;;;9.70;8.80;;;15.70;99.90;;;14.91;100.00;98498.31;5034321;28;20445;-68
2022/05/20 02:45:53;;;;;;;9.93;8.97;;;15.80;99.90;;;14.94;100.00;98495.13;5033396;28;20438;-68
2022/05/20 02:48:22;;;;;;;10.57;9.67;;;15.80;99.90;;;14.91;100.00;98495.59;5033317;28;20437;-68
2022/05/20 02:50:50;;;;;;;9.90;9.10;;;15.80;99.90;;;14.81;100.00;98501.63;5049447;28;20438;-68
2022/05/20 02:53:17;;;;;;;9.93;9.03;;;15.80;99.90;;;14.77;100.00;98498.53;5033254;28;20442;-68
2022/05/20 02:55:45;;;;;;;9.70;8.87;;;15.70;99.90;;;14.83;100.00;98500.31;5033138;28;20529;-68
2022/05/20 03:06:24;;;;;;;11.07;10.17;;;15.60;99.90;;;14.73;100.00;98503.59;5036519;28;20826;-69
2022/05/20 03:08:52;;;;;;;10.50;9.60;;;15.70;99.90;;;14.69;100.00;98504.22;5037748;28;20473;-68
2022/05/20 03:11:20;;;;;;;11.07;10.13;;;15.60;99.90;;;14.73;100.00;98513.66;5056799;28;20535;-68
2022/05/20 03:13:49;;;;;;;10.43;9.53;;;15.60;99.90;;;14.69;100.00;98515.97;5072341;28;20527;-68
2022/05/20 03:16:15;;;;;;;10.90;10.00;;;15.60;99.90;;;14.70;100.00;98517.63;5056622;28;20476;-69
2022/05/20 03:18:42;;;;;;;10.90;9.83;;;15.60;99.90;;;14.65;100.00;98509.31;5056796;28;20440;-69
2022/05/20 03:21:09;;;;;;;9.50;8.70;;;15.60;99.90;;;14.57;100.00;98509.63;5056450;28;20469;-69
2022/05/20 03:23:37;;;;;;;11.30;10.30;;;15.50;99.90;;;14.65;100.00;98514.75;5056127;28;20437;-68
2022/05/20 03:26:04;;;;;;;11.03;10.13;;;15.50;99.90;;;14.74;100.00;98504.44;5054843;28;21007;-68
2022/05/20 03:28:32;;;;;;;10.80;9.80;;;15.60;99.90;;;14.65;100.00;98508.47;5055372;28;20833;-68
2022/05/20 03:31:07;;;;;;;11.40;10.27;;;15.60;99.90;;;14.77;100.00;98503.13;5056312;28;20799;-67
2022/05/20 03:33:34;;;;;;;11.70;10.70;;;15.60;99.90;;;14.72;100.00;98499.19;5054766;28;20947;-67
2022/05/20 03:36:02;;;;;;;10.97;10.00;;;15.70;99.90;;;14.67;100.00;98500.91;5055421;28;20912;-68
2022/05/20 03:38:29;;;;;;;10.47;9.57;;;15.60;99.90;;;14.68;100.00;98499.84;5055680;28;20478;-68
2022/05/20 03:40:56;;;;;;;10.10;9.20;;;15.60;99.90;;;14.82;100.00;98504.09;5055559;28;20464;-67
2022/05/20 03:43:23;;;;;;;9.47;8.77;;;15.70;99.90;;;14.80;100.00;98491.78;5056595;28;20476;-68
2022/05/20 03:45:52;;;;;;;9.97;8.93;;;15.70;99.90;;;14.81;100.00;98490.72;5055982;28;20440;-69
2022/05/20 03:48:21;;;;;;;9.10;8.37;;;15.70;99.90;;;14.79;100.00;98490.94;5055939;28;20537;-68
2022/05/20 03:50:48;;;;;;;9.50;8.70;;;15.80;99.90;;;14.83;100.00;98494.84;5056040;28;20476;-68
2022/05/20 03:53:16;;;;;;;8.73;8.03;;;15.80;99.90;;;14.90;100.00;98486.59;5055880;28;20459;-68
2022/05/20 03:55:44;;;;;;;10.97;9.90;;;15.90;99.90;;;15.12;100.00;98497.78;5055857;28;20481;-67
2022/05/20 03:58:11;;;;;;;9.37;8.30;;;15.90;99.90;;;15.08;100.00;98499.31;5055906;28;20441;-67
2022/05/20 04:03:22;;;;;;;9.10;8.30;;;16.00;99.90;;;15.21;100.00;98517.31;5055347;28;20451;-69
2022/05/20 04:05:50;;;;;;;14.30;7.90;;;16.20;99.90;;;15.22;99.24;98513.53;5055960;28;20449;-69
2022/05/20 04:08:17;;;;;;;7.67;6.93;;;16.20;99.90;;;15.32;99.69;98504.81;5055782;28;20437;-67
2022/05/20 04:10:44;;;;;;;8.30;7.60;;;16.30;99.90;;;15.53;97.79;98508.84;5053458;28;20453;-69
2022/05/20 04:13:11;;;;;;;8.40;7.60;;;16.40;99.90;;;15.81;96.22;98520.91;5055830;28;20444;-70
2022/05/20 04:15:38;;;;;;;8.20;7.50;;;16.60;99.90;;;16.00;95.04;98512.66;5056060;28;20478;-69
2022/05/20 04:18:05;;;;;;;8.53;7.57;;;16.80;99.90;;;16.14;93.99;98508.59;5055116;28;20443;-69
2022/05/20 04:20:34;;;;;;;7.73;6.93;;;17.00;99.90;;;16.23;91.88;98511.81;5054103;28;20891;-69
2022/05/20 04:23:01;;;;;;;7.53;6.87;;;17.20;98.40;;;16.21;92.67;98504.91;5055004;28;20449;-69
2022/05/20 04:25:28;;;;;;;8.20;7.40;;;17.20;99.20;;;16.36;92.09;98504.41;5055429;28;20441;-68
2022/05/20 04:27:55;;;;;;;7.90;7.20;;;17.30;99.60;;;16.26;92.11;98499.56;5054085;28;20476;-69
2022/05/20 04:30:22;;;;;;;8.37;7.67;;;17.30;98.70;;;16.37;91.58;98506.06;5054776;28;20525;-69
2022/05/20 04:32:49;;;;;;;8.00;7.30;;;17.40;97.80;;;16.35;89.62;98470.03;5054201;28;20469;-68
2022/05/20 04:35:16;;;;;;;7.50;6.90;;;17.50;96.70;;;16.99;87.05;98508.09;5053872;28;20491;-68
2022/05/20 04:37:45;;;;;;;7.97;7.27;;;17.80;95.30;;;16.78;87.67;98501.41;5054987;28;20440;-68
2022/05/20 04:40:13;;;;;;;7.33;6.73;;;17.80;94.50;;;16.98;86.72;98500.94;5055381;28;20472;-78
2022/05/20 04:48:11;;;;;;;5.27;4.77;;;18.30;92.80;;;18.90;76.88;98479.03;5070242;28;20438;-80
2022/05/20 04:50:39;;;;;;;5.17;4.73;;;19.20;90.60;;;18.87;75.11;98473.22;5055217;28;20440;-78
2022/05/20 04:53:08;;;;;;;5.90;5.17;;;19.60;88.80;;;19.19;73.97;98477.94;5055437;28;20437;-80
2022/05/20 04:55:34;;;;;;;7.17;6.53;;;19.90;88.40;;;18.90;75.91;98481.75;5061912;28;20437;-79
2022/05/20 04:58:02;;;;;;;8.57;5.33;;;19.90;88.80;;;18.94;74.62;98469.19;5053780;28;20446;-77
2022/05/20 05:00:31;;;;;;;6.20;5.60;;;19.80;88.10;;;18.54;76.34;98484.09;5053659;28;20459;-79
2022/05/20 05:02:59;;;;;;;7.50;6.80;;;19.60;88.40;;;18.44;77.74;98497.69;5054549;28;20497;-80
2022/05/20 05:05:29;;;;;;;7.53;7.00;;;19.40;89.10;;;18.00;80.01;98499.28;5054584;28;20460;-78
2022/05/20 05:07:58;;;;;;;10.10;7.47;;;19.10;90.20;;;17.65;81.89;98493.06;5054887;28;20434;-70
2022/05/20 05:10:30;;;;;;;9.50;7.70;;;18.80;90.70;;;17.48;82.89;98503.97;5054678;28;20484;-71
2022/05/20 05:12:58;;;;;;;8.93;6.60;;;18.40;91.40;;;17.34;83.64;98486.28;5055165;28;20434;-73
2022/05/20 05:15:25;;;;;;;7.80;7.10;;;18.30;92.10;;;17.20;84.52;98497.53;5054298;28;20902;-72
2022/05/20 05:18:12;;;;;;;8.63;7.70;;;18.10;92.70;;;17.15;85.26;98486.53;5054671;28;20980;-71
2022/05/20 05:20:45;;;;;;;8.57;7.77;;;18.10;93.30;;;17.14;85.60;98482.13;5048505;28;20458;-72
2022/05/20 05:23:12;;;;;;;8.83;7.93;;;18.00;93.60;;;17.23;84.92;98493.47;5034319;28;20489;-72
2022/05/20 05:25:41;;;;;;;7.83;7.33;;;18.00;93.50;;;17.32;84.38;98488.44;5034677;28;20481;-71
2022/05/20 05:28:08;;;;;;;7.80;7.10;;;18.10;93.60;;;17.36;84.40;98490.41;5035666;28;20472;-71
2022/05/20 05:30:36;;;;;;;8.30;7.60;;;18.20;93.60;;;17.69;82.96;98488.72;5053125;28;20434;-71
2022/05/20 05:33:04;;;;;;;8.00;7.30;;;18.40;93.00;;;17.91;81.59;98493.44;5052850;28;20437;-72
2022/05/20 05:35:32;;;;;;;9.60;7.97;;;18.60;92.10;;;18.08;81.86;98489.84;5052321;28;20453;-71
2022/05/20 05:37:59;;;;;;;10.50;8.60;;;18.90;91.80;;;18.44;79.54;98487.56;5054456;28;20440;-72
2022/05/20 05:40:29;;;;;;;13.17;9.00;;;19.20;90.90;;;18.66;77.68;98482.06;5052945;28;20465;-71
2022/05/20 05:42:59;;;;;;;9.40;8.50;;;19.50;90.20;;;18.80;76.66;98474.28;5054199;28;20537;-72
2022/05/20 05:45:30;;;;;;;13.07;8.70;;;19.70;89.30;;;20.07;71.61;98479.34;5054085;28;20494;-73
2022/05/20 05:48:00;;;;;;;9.00;7.97;;;20.50;87.50;;;20.63;68.90;98477.94;5052719;28;20532;-73
2022/05/20 05:50:29;;;;;;;9.40;8.50;;;21.30;85.70;;;20.37;69.43;98464.13;5052379;28;20861;-72
2022/05/20 05:52:59;;;;;;;7.70;6.77;;;21.50;85.00;;;20.45;69.68;98479.25;5053761;28;20437;-73
2022/05/20 05:55:27;;;;;;;8.67;6.50;;;21.60;85.00;;;19.99;72.00;98473.56;5068553;28;20937;-74
2022/05/20 05:57:54;;;;;;;8.60;7.30;;;21.10;85.50;;;19.92;71.33;98471.06;5052543;28;20441;-73
2022/05/20 06:00:24;;;;;;;7.73;6.97;;;21.10;85.10;;;20.04;70.31;98468.13;5069697;28;20565;-73
2022/05/20 06:02:51;;;;;;;9.63;7.17;;;21.10;84.80;;;19.33;73.75;98468.19;5053528;28;20531;-72
2022/05/20 06:05:18;;;;;;;7.70;7.07;;;20.70;85.40;;;19.08;74.58;98458.66;5053650;28;20447;-73
2022/05/20 06:07:46;;;;;;;6.73;6.23;;;20.20;86.00;;;19.52;71.46;98407.50;5054017;28;20529;-72
2022/05/20 06:10:13;;;;;;;7.53;6.93;;;20.40;85.80;;;20.31;69.80;98454.22;5052246;28;20429;-72
2022/05/20 06:12:42;;;;;;;7.23;6.53;;;21.20;85.20;;;20.51;69.24;98453.47;5051805;28;20793;-72
2022/05/20 06:15:14;;;;;;;8.20;6.70;;;21.80;84.00;;;20.23;70.61;98466.56;5051793;28;20437;-74
2022/05/20 06:17:43;;;;;;;9.00;6.90;;;21.60;84.10;;;20.06;71.21;98465.94;5053239;28;20443;-73
2022/05/20 06:20:12;;;;;;;7.30;6.20;;;21.20;84.80;;;20.13;72.24;98463.75;5051038;28;20461;-72
2022/05/20 06:22:39;;;;;;;7.23;6.53;;;21.00;85.70;;;20.16;70.80;98448.69;5068629;28;20445;-72
2022/05/20 06:25:09;;;;;;;8.23;6.77;;;21.00;85.00;;;19.58;72.03;98443.97;5052973;28;20844;-73
2022/05/20 06:27:36;;;;;;;9.73;7.20;;;20.70;85.00;;;20.06;72.55;98444.81;5053481;28;20521;-72
2022/05/20 06:30:06;;;;;;;6.77;6.00;;;20.90;86.00;;;20.20;71.90;98441.56;5052518;28;20447;-73
2022/05/20 06:32:34;;;;;;;7.53;6.70;;;21.10;86.20;;;20.51;69.06;98449.91;5052724;28;20925;-73
2022/05/20 06:40:35;;;;;;;6.80;6.20;;;21.60;84.70;;;20.77;70.02;98433.50;5057011;28;20503;-73
2022/05/20 06:43:04;;;;;;;7.37;6.50;;;21.70;85.20;;;21.14;66.84;98439.88;5057223;28;20531;-73
2022/05/20 06:45:32;;;;;;;7.50;6.83;;;22.00;83.80;;;21.01;67.85;98435.75;5057016;28;20449;-73
2022/05/20 06:48:00;;;;;;;7.90;6.47;;;22.00;83.90;;;20.79;68.44;98434.03;5057120;28;20894;-73
2022/05/20 06:50:28;;;;;;;6.67;5.90;;;21.80;83.80;;;21.38;66.51;98440.13;5056978;28;20446;-73
2022/05/20 06:52:55;;;;;;;6.73;6.07;;;22.00;83.50;;;;;;5056792;28;20431;-73
2022/05/20 06:55:22;;;;;;;7.37;6.77;;;22.50;83.20;;;21.56;66.56;98446.13;5057052;28;20469;-73
2022/05/20 06:57:51;;;;;;;8.43;6.40;;;22.40;83.30;;;22.04;64.29;98438.34;5055255;28;20520;-73
2022/05/20 07:00:18;;;;;;;10.20;6.60;;;22.70;82.60;;;22.38;62.83;98433.25;5055409;28;20438;-73
2022/05/20 07:02:46;;;;;;;7.33;6.67;;;23.00;81.90;;;22.06;63.27;98455.41;5056717;28;20442;-73
2022/05/20 07:05:13;;;;;;;6.57;5.83;;;23.00;81.30;;;22.70;61.13;98452.06;5056606;28;20446;-72
2022/05/20 07:07:41;;;;;;;7.43;6.10;;;23.20;80.80;;;23.06;59.74;98451.00;5056747;28;20435;-68
2022/05/20 07:10:12;;;;;;;7.13;5.87;;;23.70;79.70;;;22.90;60.94;98453.06;5057361;28;20818;-88
2022/05/20 07:12:39;;;;;;;6.13;5.53;;;23.70;79.90;;;23.11;61.88;98452.91;5056503;28;20487;-86
2022/05/20 07:15:08;;;;;;;8.67;5.50;;;23.80;80.70;;;23.54;59.84;98449.53;5058781;28;20446;-83
2022/05/20 07:17:36;;;;;;;8.63;6.40;;;24.20;80.00;;;23.31;56.35;98407.84;5073666;28;20430;-88
2022/05/20 07:20:03;;;;;;;7.30;6.37;;;24.30;76.20;;;23.72;57.23;98437.75;5072947;28;20450;-87
2022/05/20 07:22:31;;;;;;;7.50;5.93;;;24.60;76.70;;;23.76;58.67;98443.50;5055248;28;20463;-77
2022/05/20 07:24:59;;;;;;;6.50;5.93;;;24.60;77.90;;;24.00;57.80;98446.25;5055549;28;20541;-79
2022/05/20 07:27:26;;;;;;;7.20;5.93;;;24.80;77.20;;;23.34;57.63;98456.88;5056032;28;21001;-83
2022/05/20 07:29:53;;;;;;;7.50;5.90;;;24.50;75.60;;;23.06;58.41;98453.75;5056891;28;20451;-82
2022/05/20 07:32:20;;;;;;;7.70;6.03;;;24.30;75.70;;;23.11;58.41;98453.72;5055873;28;20537;-82
2022/05/20 07:34:48;;;;;;;6.90;6.30;;;24.00;76.00;;;22.88;57.81;98414.78;5055577;28;20430;-81
2022/05/20 07:37:15;;;;;;;8.80;7.13;;;24.00;75.70;;;23.13;57.85;98436.91;5056432;28;20919;-79
2022/05/20 07:39:42;;;;;;;6.87;6.27;;;24.10;75.40;;;23.74;56.84;98427.25;5058777;28;20472;-85
2022/05/20 07:42:12;;;;;;;8.33;6.70;;;24.40;75.50;;;24.26;53.82;98373.38;5057880;28;20521;-89
2022/05/20 07:44:41;;;;;;;6.67;6.17;;;25.10;74.20;;;24.80;53.41;98440.31;5055838;28;20432;-75
2022/05/20 07:47:08;;;;;;;7.33;6.63;;;25.40;73.50;;;24.57;53.44;98434.53;5052611;28;20440;-80
2022/05/20 07:49:36;;;;;;;7.47;6.80;;;25.40;72.70;;;24.38;54.17;98431.75;5052283;28;20483;-85
2022/05/20 07:52:05;;;;;;;7.87;7.27;;;25.40;72.70;;;24.61;53.61;98432.00;5039514;28;20476;-90
2022/05/20 07:54:38;;;;;;;7.30;6.70;;;25.40;72.40;;;24.86;53.61;98439.09;5053176;28;20532;-84
2022/05/20 07:57:13;;;;;;;7.20;6.60;;;25.50;72.80;;;24.43;53.33;98437.22;5036949;28;20555;-83
2022/05/20 07:59:46;;;;;;;7.53;6.80;;;25.20;71.90;;;24.42;53.84;98429.22;5052224;28;20981;-84
2022/05/20 08:02:16;;;;;;;11.17;6.80;;;25.20;72.40;;;23.81;56.63;98437.13;5036394;28;20509;-83
2022/05/20 08:04:57;;;;;;;7.83;7.03;;;24.90;72.90;;;24.01;55.93;98436.06;5034893;28;20484;-82
2022/05/20 08:07:28;;;;;;;7.10;6.60;;;24.90;73.20;;;24.73;52.83;98442.59;5036826;28;20491;-82
2022/05/20 08:09:56;;;;;;;7.60;7.00;;;25.20;71.70;;;25.79;50.72;98439.50;5052020;28;20488;-79
2022/05/20 08:12:24;;;;;;;8.03;7.27;;;26.10;71.00;;;26.36;48.55;98435.59;5036679;28;20551;-74
2022/05/20 08:14:52;;;;;;;7.37;6.67;;;26.70;69.20;;;26.44;48.72;98439.56;5051889;28;20450;-76
2022/05/20 08:17:22;;;;;;;7.60;6.90;;;27.20;68.40;;;26.43;48.61;98438.78;5051588;28;20749;-78
2022/05/20 08:19:51;;;;;;;7.60;6.90;;;27.10;67.80;;;25.84;50.06;98441.31;5035947;28;20526;-82
2022/05/20 08:22:22;;;;;;;7.73;7.13;;;26.70;68.10;;;25.17;51.87;98443.31;5035360;28;20572;-85
2022/05/20 08:24:52;;;;;;;8.63;7.83;;;26.20;68.20;;;25.51;50.94;98446.91;5035118;28;20964;-82
2022/05/20 08:27:20;;;;;;;9.13;7.30;;;26.10;68.50;;;25.12;51.58;98455.28;5037216;28;20445;-74
2022/05/20 08:29:49;;;;;;;8.40;7.13;;;26.00;68.80;;;24.86;52.79;98455.69;5037504;28;20442;-80
2022/05/20 08:32:16;;;;;;;8.50;7.50;;;25.60;69.70;;;25.05;53.86;98446.53;5043337;28;20448;-85
2022/05/20 08:34:44;;;;;;;7.60;7.10;;;25.70;70.80;;;24.62;54.91;98445.50;5049136;28;20441;-82
2022/05/20 08:37:11;;;;;;;8.60;7.80;;;25.40;71.80;;;24.24;56.49;98442.72;5044351;28;20446;-83
2022/05/20 08:39:39;;;;;;;10.50;7.90;;;25.10;72.50;;;24.18;56.47;98453.00;5035928;28;20450;-83
2022/05/20 08:42:14;;;;;;;8.37;7.57;;;25.00;72.70;;;24.33;56.01;98440.91;5052495;28;20688;-85
2022/05/20 08:44:43;;;;;;;9.50;8.70;;;25.00;72.70;;;24.37;55.98;98448.63;5038858;28;20445;-87
2022/05/20 08:47:22;;;;;;;9.13;8.13;;;25.00;72.40;;;24.07;56.16;98400.97;5056483;28;20462;-87
2022/05/20 08:49:51;;;;;;;9.33;8.27;;;25.10;73.20;;;24.10;57.06;98447.31;5040881;28;20456;-86
2022/05/20 08:52:19;;;;;;;15.50;9.57;;;25.00;73.20;;;24.17;57.06;98443.06;5037030;28;20849;-84
2022/05/20 08:54:47;;;;;;;10.20;9.40;;;24.90;73.60;;;24.22;57.79;98435.81;5036398;28;20952;-77
2022/05/20 08:57:24;;;;;;;9.80;8.87;;;24.90;74.10;;;24.35;57.49;98431.53;5051054;28;20846;-75
2022/05/20 08:59:52;;;;;;;10.63;9.70;;;25.00;74.00;;;24.17;56.81;98436.72;5033821;28;20436;-78
2022/05/20 09:02:21;;;;;;;10.30;9.27;;;25.00;73.40;;;24.13;57.63;98430.97;5036518;28;20527;-84
2022/05/20 09:04:48;;;;;;;11.10;10.17;;;24.90;73.80;;;24.42;58.14;98426.47;5037267;28;20926;-81
2022/05/20 09:07:18;;;;;;;9.60;8.60;;;25.00;74.90;;;24.52;58.04;98418.03;5036073;28;20453;-87
2022/05/20 09:09:51;;;;;;;11.60;10.47;;;25.20;75.10;;;24.47;57.02;98418.94;5051895;28;20524;-85
2022/05/20 09:12:31;;;;;;;9.80;8.87;;;25.20;73.70;;;24.57;57.76;98412.44;5035806;28;20445;-84
2022/05/20 09:18:03;;;;;;;9.97;8.80;;;25.50;73.20;;;25.01;55.22;98363.41;5052844;28;21000;-89
2022/05/20 09:20:30;;;;;;;8.67;7.97;;;25.80;73.50;;;25.56;55.21;98410.88;5037959;28;20480;-86
2022/05/20 09:23:03;;;;;;;9.00;8.10;;;26.10;73.00;;;25.72;54.14;98397.56;5038541;28;20524;-85
2022/05/20 09:25:33;;;;;;;9.30;8.60;;;26.30;72.20;;;26.02;52.37;98401.69;5044311;28;20517;-86
2022/05/20 09:28:22;;;;;;;9.30;8.50;;;26.50;71.00;;;26.22;51.01;98385.78;5037069;28;20565;-86
2022/05/20 09:30:53;;;;;;;9.63;8.77;;;26.80;69.90;;;26.74;50.55;98384.59;5048568;28;20469;-87
2022/05/20 09:33:25;;;;;;;9.63;8.83;;;27.20;69.60;;;27.09;49.86;98384.91;5057442;28;20439;-87
2022/05/20 09:35:57;;;;;;;9.10;8.30;;;27.60;69.30;;;26.79;49.63;98380.88;5056353;28;20426;-82
2022/05/20 09:38:38;;;;;;;10.43;9.40;;;27.60;68.50;;;25.97;52.10;98379.63;5037076;28;20480;-78
2022/05/20 09:41:18;;;;;;;9.90;9.00;;;26.80;69.10;;;25.97;51.98;98378.81;5035121;28;20941;-86
2022/05/20 09:43:53;;;;;;;8.73;7.93;;;26.60;69.30;;;26.25;50.93;98373.28;5034785;28;20453;-84
2022/05/20 09:46:32;;;;;;;10.00;9.30;;;26.70;69.00;;;25.92;51.29;98367.84;5035952;28;20452;-84
2022/05/20 09:49:06;;;;;;;9.90;9.10;;;26.80;68.20;;;25.91;51.79;98363.44;5033020;28;20458;-75
2022/05/20 09:51:38;;;;;;;9.13;8.30;;;26.60;68.80;;;25.98;50.90;98369.38;5033519;28;20499;-79
2022/05/20 09:54:22;;;;;;;8.90;8.30;;;26.70;68.30;;;25.87;50.54;98357.72;5034160;28;20478;-78
2022/05/20 09:57:03;;;;;;;9.27;8.47;;;26.60;67.90;;;26.03;50.04;98359.03;5032660;28;20446;-79
2022/05/20 09:59:40;;;;;;;9.87;8.50;;;26.70;68.00;;;25.78;49.88;98316.13;5050094;28;20464;-79
2022/05/20 10:02:16;;;;;;;8.63;7.93;;;26.70;67.20;;;26.14;49.96;98350.47;5047310;28;20553;-89
2022/05/20 10:04:54;;;;;;;11.00;9.40;;;26.70;67.60;;;25.71;50.96;98348.91;5057913;28;20425;-90
2022/05/20 10:07:47;;;;;;;8.17;7.47;;;26.40;67.60;;;26.06;50.83;98334.63;5057384;28;20469;-92
2022/05/20 10:10:23;;;;;;;9.20;8.40;;;26.60;68.10;;;26.00;51.77;98347.75;5046971;28;20513;-80
2022/05/20 10:12:52;;;;;;;9.40;8.60;;;26.70;68.80;;;26.27;50.88;98338.59;5051354;28;20441;-86
2022/05/20 10:15:25;;;;;;;8.50;7.70;;;26.80;68.60;;;26.24;51.24;98342.00;5049711;28;20481;-84
2022/05/20 10:18:11;;;;;;;8.47;7.77;;;26.80;68.40;;;25.96;51.93;98328.16;5057936;28;20444;-90
2022/05/20 10:20:48;;;;;;;9.33;8.53;;;26.60;68.30;;;26.12;50.84;98330.59;5049478;28;20440;-83
2022/05/20 10:23:29;;;;;;;8.57;7.30;;;26.70;68.10;;;26.33;50.41;98324.66;5069072;28;20571;-80
2022/05/20 10:26:06;;;;;;;8.77;8.00;;;26.80;68.00;;;26.45;50.47;98319.34;5051473;28;20445;-90
2022/05/20 10:34:21;;;;;;;8.80;8.10;;;27.20;67.60;;;26.79;49.17;98294.97;5045959;28;20549;-87
2022/05/20 10:37:01;;;;;;;8.37;7.77;;;27.30;66.70;;;26.91;48.14;98284.16;5032365;28;20502;-91
2022/05/20 10:39:53;;;;;;;8.60;8.00;;;27.40;66.00;;;26.56;50.85;98273.66;5040762;28;20460;-90
2022/05/20 10:42:40;;;;;;;10.83;7.60;;;27.40;66.90;;;26.56;50.68;98270.09;5051955;28;20473;-86
2022/05/20 10:48:46;;;;;;;9.50;8.00;;;27.40;67.70;;;26.49;48.62;98267.75;5037057;28;20450;-90
2022/05/20 10:51:59;;;;;;;7.93;7.20;;;27.30;65.40;;;26.59;48.65;98263.91;5034746;28;20442;-86
2022/05/20 10:54:55;;;;;;;10.47;9.37;;;27.30;65.90;;;26.76;48.46;98254.06;5062014;28;20445;-85
2022/05/20 10:58:19;;;;;;;8.37;7.47;;;27.30;65.50;;;26.86;48.29;98243.53;5034541;28;20465;-90
2022/05/20 11:00:50;;;;;;;9.67;8.33;;;27.50;65.10;;;26.83;47.80;98254.41;5046115;28;20473;-87
2022/05/20 11:04:03;;;;;;;8.73;7.83;;;27.50;64.60;;;27.06;47.71;98235.81;5045682;28;20468;-90
2022/05/20 11:07:01;;;;;;;8.87;7.60;;;27.60;64.90;;;27.01;47.49;98233.19;5052133;28;20531;-90